CheckWX is a tool to help pilots better visualize weather data.  It is not intended as a substitute for an official pre-flight weather briefing.

00:56:01 UTC

UTDD METAR
Dushanbe Airport
Dushanbe, Tajikistan
Current

26 mins ago

UTDD 230030Z 27005MPS 2000 1400E HZ SCT026CB SCT026 17/02 Q1013 R09/D TEMPO 29008MPS 1200 HZ RMK QFE692/0922
Observed
May-23 @ 00:30 UTC
Wind
  • 270° at 10 KTS
Visibility
1,996 meters
Flight Rules
IFR
Conditions
Haze
Cloud Levels
  • Scattered at 2,600' AGL
  • Scattered at 2,600' AGL
Temperature
17°C / 63°F
Dewpoint
C / 36°F
Humidity
37%
Altimeter
29.91" Hg
Pressure
1012.92 hPa
Previous

56 mins ago

UTDD 230000Z 28005MPS 260V320 2800 HZ SCT025CB SCT025 18/02 Q1013 R09/CLRD// TEMPO 29008MPS 2000 HZ RMK QFE692/0922
Observed
May-23 @ 00:00 UTC
Wind
  • 280° at 10 KTS
Visibility
2,800 meters
Flight Rules
IFR
Conditions
Haze
Cloud Levels
  • Scattered at 2,500' AGL
  • Scattered at 2,500' AGL
Temperature
18°C / 64°F
Dewpoint
C / 36°F
Humidity
34%
Altimeter
29.91" Hg
Pressure
1012.92 hPa
Previous

56 mins ago

UTDD 230000Z 28005MPS 260V320 2800 HZ SCT025CB SCT025 18/02 Q1013 R09/D TEMPO 29008MPS 2000 HZ RMK QFE692/0922
Observed
May-23 @ 00:00 UTC
Wind
  • 280° at 10 KTS
Visibility
2,800 meters
Flight Rules
IFR
Conditions
Haze
Cloud Levels
  • Scattered at 2,500' AGL
  • Scattered at 2,500' AGL
Temperature
18°C / 64°F
Dewpoint
C / 36°F
Humidity
34%
Altimeter
29.91" Hg
Pressure
1012.92 hPa